sensor_id;sensor_type;location;lat;lon;timestamp;temperature;humidity
17918;DHT22;9084;50.956;3.106;2024-02-14T00:02:13;10.20;99.90
17918;DHT22;9084;50.956;3.106;2024-02-14T00:04:39;10.10;99.90
17918;DHT22;9084;50.956;3.106;2024-02-14T00:07:04;10.10;99.90
17918;DHT22;9084;50.956;3.106;2024-02-14T00:09:31;10.20;99.90
17918;DHT22;9084;50.956;3.106;2024-02-14T00:11:57;10.10;99.90
17918;DHT22;9084;50.956;3.106;2024-02-14T00:14:22;10.10;99.90
17918;DHT22;9084;50.956;3.106;2024-02-14T00:16:48;10.20;99.90
17918;DHT22;9084;50.956;3.106;2024-02-14T00:19:14;10.20;99.90
17918;DHT22;9084;50.956;3.106;2024-02-14T00:21:40;10.20;99.90
17918;DHT22;9084;50.956;3.106;2024-02-14T00:24:06;10.20;99.90
17918;DHT22;9084;50.956;3.106;2024-02-14T00:26:31;10.20;99.90
17918;DHT22;9084;50.956;3.106;2024-02-14T00:28:57;10.20;99.90
17918;DHT22;9084;50.956;3.106;2024-02-14T00:31:25;10.20;99.90
17918;DHT22;9084;50.956;3.106;2024-02-14T00:33:51;10.20;99.90
17918;DHT22;9084;50.956;3.106;2024-02-14T00:36:16;10.30;99.90
17918;DHT22;9084;50.956;3.106;2024-02-14T00:38:43;10.20;99.90
17918;DHT22;9084;50.956;3.106;2024-02-14T00:41:11;10.30;99.90
17918;DHT22;9084;50.956;3.106;2024-02-14T00:43:36;10.30;99.90
17918;DHT22;9084;50.956;3.106;2024-02-14T00:46:02;10.30;99.90
17918;DHT22;9084;50.956;3.106;2024-02-14T00:48:28;10.30;99.90
17918;DHT22;9084;50.956;3.106;2024-02-14T00:50:53;10.30;99.90
17918;DHT22;9084;50.956;3.106;2024-02-14T00:53:20;10.30;99.90
17918;DHT22;9084;50.956;3.106;2024-02-14T00:55:48;10.30;99.90
17918;DHT22;9084;50.956;3.106;2024-02-14T00:58:13;10.40;99.90
17918;DHT22;9084;50.956;3.106;2024-02-14T01:00:39;10.40;99.90
17918;DHT22;9084;50.956;3.106;2024-02-14T01:03:06;10.40;99.90
17918;DHT22;9084;50.956;3.106;2024-02-14T01:05:40;10.40;99.90
17918;DHT22;9084;50.956;3.106;2024-02-14T01:08:06;10.50;99.90
17918;DHT22;9084;50.956;3.106;2024-02-14T01:10:32;10.40;99.90
17918;DHT22;9084;50.956;3.106;2024-02-14T01:12:59;10.50;99.90
17918;DHT22;9084;50.956;3.106;2024-02-14T01:15:26;10.40;99.90
17918;DHT22;9084;50.956;3.106;2024-02-14T01:17:52;10.50;99.90
17918;DHT22;9084;50.956;3.106;2024-02-14T01:20:18;10.50;99.90
17918;DHT22;9084;50.956;3.106;2024-02-14T01:22:46;10.50;99.90
17918;DHT22;9084;50.956;3.106;2024-02-14T01:25:14;10.50;99.90
17918;DHT22;9084;50.956;3.106;2024-02-14T01:27:40;10.50;99.90
17918;DHT22;9084;50.956;3.106;2024-02-14T01:30:11;10.60;99.90
17918;DHT22;9084;50.956;3.106;2024-02-14T01:32:37;10.60;99.90
17918;DHT22;9084;50.956;3.106;2024-02-14T01:35:03;10.60;99.90
17918;DHT22;9084;50.956;3.106;2024-02-14T01:37:29;10.60;99.90
17918;DHT22;9084;50.956;3.106;2024-02-14T01:39:55;10.60;99.90
17918;DHT22;9084;50.956;3.106;2024-02-14T01:42:21;10.60;99.90
17918;DHT22;9084;50.956;3.106;2024-02-14T01:44:47;10.60;99.90
17918;DHT22;9084;50.956;3.106;2024-02-14T01:47:14;10.50;99.90
17918;DHT22;9084;50.956;3.106;2024-02-14T01:49:41;10.60;99.90
17918;DHT22;9084;50.956;3.106;2024-02-14T01:52:10;10.50;99.90
17918;DHT22;9084;50.956;3.106;2024-02-14T01:54:36;10.60;99.90
17918;DHT22;9084;50.956;3.106;2024-02-14T01:57:02;10.60;99.90
17918;DHT22;9084;50.956;3.106;2024-02-14T01:59:30;10.60;99.90
17918;DHT22;9084;50.956;3.106;2024-02-14T02:02:00;10.60;99.90
17918;DHT22;9084;50.956;3.106;2024-02-14T02:04:25;10.60;99.90
17918;DHT22;9084;50.956;3.106;2024-02-14T02:06:51;10.60;99.90
17918;DHT22;9084;50.956;3.106;2024-02-14T02:09:24;10.60;99.90
17918;DHT22;9084;50.956;3.106;2024-02-14T02:11:50;10.70;99.90
17918;DHT22;9084;50.956;3.106;2024-02-14T02:14:16;10.70;99.90
17918;DHT22;9084;50.956;3.106;2024-02-14T02:16:42;10.70;99.90
17918;DHT22;9084;50.956;3.106;2024-02-14T02:19:09;10.70;99.90
17918;DHT22;9084;50.956;3.106;2024-02-14T02:21:38;10.70;99.90
17918;DHT22;9084;50.956;3.106;2024-02-14T02:24:06;10.60;99.90
17918;DHT22;9084;50.956;3.106;2024-02-14T02:26:32;10.60;99.90
17918;DHT22;9084;50.956;3.106;2024-02-14T02:28:58;10.60;99.90
17918;DHT22;9084;50.956;3.106;2024-02-14T02:31:25;10.60;99.90
17918;DHT22;9084;50.956;3.106;2024-02-14T02:33:52;10.70;99.90
17918;DHT22;9084;50.956;3.106;2024-02-14T02:36:18;10.60;99.90
17918;DHT22;9084;50.956;3.106;2024-02-14T02:38:46;10.60;99.90
17918;DHT22;9084;50.956;3.106;2024-02-14T02:41:11;10.60;99.90
17918;DHT22;9084;50.956;3.106;2024-02-14T02:43:37;10.70;99.90
17918;DHT22;9084;50.956;3.106;2024-02-14T02:46:03;10.60;99.90
17918;DHT22;9084;50.956;3.106;2024-02-14T02:48:33;10.70;99.90
17918;DHT22;9084;50.956;3.106;2024-02-14T02:51:01;10.70;99.90
17918;DHT22;9084;50.956;3.106;2024-02-14T02:53:29;10.70;99.90
17918;DHT22;9084;50.956;3.106;2024-02-14T02:55:55;10.70;99.90
17918;DHT22;9084;50.956;3.106;2024-02-14T02:58:25;10.70;99.90
17918;DHT22;9084;50.956;3.106;2024-02-14T03:00:51;10.80;99.90
17918;DHT22;9084;50.956;3.106;2024-02-14T03:03:20;10.80;99.90
17918;DHT22;9084;50.956;3.106;2024-02-14T03:05:47;10.80;99.90
17918;DHT22;9084;50.956;3.106;2024-02-14T03:08:13;10.80;99.90
17918;DHT22;9084;50.956;3.106;2024-02-14T03:10:41;10.90;99.90
17918;DHT22;9084;50.956;3.106;2024-02-14T03:13:11;10.80;99.90
17918;DHT22;9084;50.956;3.106;2024-02-14T03:15:42;10.80;99.90
17918;DHT22;9084;50.956;3.106;2024-02-14T03:18:09;10.90;99.90
17918;DHT22;9084;50.956;3.106;2024-02-14T03:20:40;10.90;99.90
17918;DHT22;9084;50.956;3.106;2024-02-14T03:23:05;10.90;99.90
17918;DHT22;9084;50.956;3.106;2024-02-14T03:25:31;10.90;99.90
17918;DHT22;9084;50.956;3.106;2024-02-14T03:28:02;10.90;99.90
17918;DHT22;9084;50.956;3.106;2024-02-14T03:30:36;10.90;99.90
17918;DHT22;9084;50.956;3.106;2024-02-14T03:33:05;10.90;99.90
17918;DHT22;9084;50.956;3.106;2024-02-14T03:35:30;10.90;99.90
17918;DHT22;9084;50.956;3.106;2024-02-14T03:37:56;10.90;99.90
17918;DHT22;9084;50.956;3.106;2024-02-14T03:40:22;10.90;99.90
17918;DHT22;9084;50.956;3.106;2024-02-14T03:42:48;10.90;99.90
17918;DHT22;9084;50.956;3.106;2024-02-14T03:45:17;10.90;99.90
17918;DHT22;9084;50.956;3.106;2024-02-14T03:47:42;10.90;99.90
17918;DHT22;9084;50.956;3.106;2024-02-14T03:50:08;10.90;99.90
17918;DHT22;9084;50.956;3.106;2024-02-14T03:52:34;10.90;99.90
17918;DHT22;9084;50.956;3.106;2024-02-14T03:55:00;10.90;99.90
17918;DHT22;9084;50.956;3.106;2024-02-14T03:57:27;10.90;99.90
17918;DHT22;9084;50.956;3.106;2024-02-14T03:59:54;10.90;99.90
17918;DHT22;9084;50.956;3.106;2024-02-14T04:02:22;10.90;99.90
17918;DHT22;9084;50.956;3.106;2024-02-14T04:04:53;10.90;99.90
17918;DHT22;9084;50.956;3.106;2024-02-14T04:07:21;10.90;99.90
17918;DHT22;9084;50.956;3.106;2024-02-14T04:09:47;10.90;99.90
17918;DHT22;9084;50.956;3.106;2024-02-14T04:12:13;11.00;99.90
17918;DHT22;9084;50.956;3.106;2024-02-14T04:14:39;11.00;99.90
17918;DHT22;9084;50.956;3.106;2024-02-14T04:17:05;10.90;99.90
17918;DHT22;9084;50.956;3.106;2024-02-14T04:19:33;11.00;99.90
17918;DHT22;9084;50.956;3.106;2024-02-14T04:21:58;11.00;99.90
17918;DHT22;9084;50.956;3.106;2024-02-14T04:24:24;11.00;99.90
17918;DHT22;9084;50.956;3.106;2024-02-14T04:26:53;11.00;99.90
17918;DHT22;9084;50.956;3.106;2024-02-14T04:29:20;11.10;99.90
17918;DHT22;9084;50.956;3.106;2024-02-14T04:31:46;11.10;99.90
17918;DHT22;9084;50.956;3.106;2024-02-14T04:34:12;11.00;99.90
17918;DHT22;9084;50.956;3.106;2024-02-14T04:36:39;11.10;99.90
17918;DHT22;9084;50.956;3.106;2024-02-14T04:39:05;11.10;99.90
17918;DHT22;9084;50.956;3.106;2024-02-14T04:41:31;11.10;99.90
17918;DHT22;9084;50.956;3.106;2024-02-14T04:44:04;11.10;99.90
17918;DHT22;9084;50.956;3.106;2024-02-14T04:46:32;11.10;99.90
17918;DHT22;9084;50.956;3.106;2024-02-14T04:48:58;11.10;99.90
17918;DHT22;9084;50.956;3.106;2024-02-14T04:51:23;11.10;99.90
17918;DHT22;9084;50.956;3.106;2024-02-14T04:53:49;11.10;99.90
17918;DHT22;9084;50.956;3.106;2024-02-14T04:56:14;11.10;99.90
17918;DHT22;9084;50.956;3.106;2024-02-14T04:58:40;11.10;99.90
17918;DHT22;9084;50.956;3.106;2024-02-14T05:01:06;11.10;99.90
17918;DHT22;9084;50.956;3.106;2024-02-14T05:03:32;11.10;99.90
17918;DHT22;9084;50.956;3.106;2024-02-14T05:05:58;11.10;99.90
17918;DHT22;9084;50.956;3.106;2024-02-14T05:08:24;11.10;99.90
17918;DHT22;9084;50.956;3.106;2024-02-14T05:10:52;11.20;99.90
17918;DHT22;9084;50.956;3.106;2024-02-14T05:13:18;11.20;99.90
17918;DHT22;9084;50.956;3.106;2024-02-14T05:15:43;11.20;99.90
17918;DHT22;9084;50.956;3.106;2024-02-14T05:18:09;11.20;99.90
17918;DHT22;9084;50.956;3.106;2024-02-14T05:20:35;11.20;99.90
17918;DHT22;9084;50.956;3.106;2024-02-14T05:23:01;11.20;99.90
17918;DHT22;9084;50.956;3.106;2024-02-14T05:25:29;11.20;99.90
17918;DHT22;9084;50.956;3.106;2024-02-14T05:27:57;11.20;99.90
17918;DHT22;9084;50.956;3.106;2024-02-14T05:30:23;11.20;99.90
17918;DHT22;9084;50.956;3.106;2024-02-14T05:32:50;11.20;99.90
17918;DHT22;9084;50.956;3.106;2024-02-14T05:35:17;11.20;99.90
17918;DHT22;9084;50.956;3.106;2024-02-14T05:37:43;11.30;99.90
17918;DHT22;9084;50.956;3.106;2024-02-14T05:40:09;11.30;99.90
17918;DHT22;9084;50.956;3.106;2024-02-14T05:42:35;11.30;99.90
17918;DHT22;9084;50.956;3.106;2024-02-14T05:45:01;11.30;99.90
17918;DHT22;9084;50.956;3.106;2024-02-14T05:47:29;11.30;99.90
17918;DHT22;9084;50.956;3.106;2024-02-14T05:49:55;11.30;99.90
17918;DHT22;9084;50.956;3.106;2024-02-14T05:52:21;11.30;99.90
17918;DHT22;9084;50.956;3.106;2024-02-14T05:54:48;11.30;99.90
17918;DHT22;9084;50.956;3.106;2024-02-14T05:57:16;11.30;99.90
17918;DHT22;9084;50.956;3.106;2024-02-14T05:59:44;11.30;99.90
17918;DHT22;9084;50.956;3.106;2024-02-14T06:02:12;11.30;99.90
17918;DHT22;9084;50.956;3.106;2024-02-14T06:04:37;11.30;99.90
17918;DHT22;9084;50.956;3.106;2024-02-14T06:07:05;11.30;99.90
17918;DHT22;9084;50.956;3.106;2024-02-14T06:09:35;11.30;99.90
17918;DHT22;9084;50.956;3.106;2024-02-14T06:12:09;11.30;99.90
17918;DHT22;9084;50.956;3.106;2024-02-14T06:14:36;11.30;99.90
17918;DHT22;9084;50.956;3.106;2024-02-14T06:17:01;11.30;99.90
17918;DHT22;9084;50.956;3.106;2024-02-14T06:19:27;11.30;99.90
17918;DHT22;9084;50.956;3.106;2024-02-14T06:21:53;11.30;99.90
17918;DHT22;9084;50.956;3.106;2024-02-14T06:24:19;11.30;99.90
17918;DHT22;9084;50.956;3.106;2024-02-14T06:26:45;11.30;99.90
17918;DHT22;9084;50.956;3.106;2024-02-14T06:29:14;11.30;99.90
17918;DHT22;9084;50.956;3.106;2024-02-14T06:31:39;11.20;99.90
17918;DHT22;9084;50.956;3.106;2024-02-14T06:34:05;11.20;99.90
17918;DHT22;9084;50.956;3.106;2024-02-14T06:36:32;11.20;99.90
17918;DHT22;9084;50.956;3.106;2024-02-14T06:38:58;11.20;99.90
17918;DHT22;9084;50.956;3.106;2024-02-14T06:41:23;11.20;99.90
17918;DHT22;9084;50.956;3.106;2024-02-14T06:43:51;11.20;99.90
17918;DHT22;9084;50.956;3.106;2024-02-14T06:46:17;11.20;99.90
17918;DHT22;9084;50.956;3.106;2024-02-14T06:48:45;11.20;99.90
17918;DHT22;9084;50.956;3.106;2024-02-14T06:51:11;11.20;99.90
17918;DHT22;9084;50.956;3.106;2024-02-14T06:53:39;11.20;99.90
17918;DHT22;9084;50.956;3.106;2024-02-14T06:56:05;11.20;99.90
17918;DHT22;9084;50.956;3.106;2024-02-14T06:58:31;11.20;99.90
17918;DHT22;9084;50.956;3.106;2024-02-14T07:00:57;11.20;99.90
17918;DHT22;9084;50.956;3.106;2024-02-14T07:03:27;11.20;99.90
17918;DHT22;9084;50.956;3.106;2024-02-14T07:05:52;11.20;99.90
17918;DHT22;9084;50.956;3.106;2024-02-14T07:08:18;11.20;99.90
17918;DHT22;9084;50.956;3.106;2024-02-14T07:10:44;11.30;99.90
17918;DHT22;9084;50.956;3.106;2024-02-14T07:13:10;11.20;99.90
17918;DHT22;9084;50.956;3.106;2024-02-14T07:15:35;11.30;99.90
17918;DHT22;9084;50.956;3.106;2024-02-14T07:18:01;11.20;99.90
17918;DHT22;9084;50.956;3.106;2024-02-14T07:20:27;11.30;99.90
17918;DHT22;9084;50.956;3.106;2024-02-14T07:22:53;11.30;99.90
17918;DHT22;9084;50.956;3.106;2024-02-14T07:25:19;11.30;99.90
17918;DHT22;9084;50.956;3.106;2024-02-14T07:27:45;11.30;99.90
17918;DHT22;9084;50.956;3.106;2024-02-14T07:30:16;11.30;99.90
17918;DHT22;9084;50.956;3.106;2024-02-14T07:32:43;11.30;99.90
17918;DHT22;9084;50.956;3.106;2024-02-14T07:35:09;11.20;99.90
17918;DHT22;9084;50.956;3.106;2024-02-14T07:37:34;11.20;99.90
17918;DHT22;9084;50.956;3.106;2024-02-14T07:40:00;11.20;99.90
17918;DHT22;9084;50.956;3.106;2024-02-14T07:42:25;11.20;99.90
17918;DHT22;9084;50.956;3.106;2024-02-14T07:44:53;11.30;99.90
17918;DHT22;9084;50.956;3.106;2024-02-14T07:47:22;11.30;99.90
17918;DHT22;9084;50.956;3.106;2024-02-14T07:49:50;11.30;99.90
17918;DHT22;9084;50.956;3.106;2024-02-14T07:52:18;11.30;99.90
17918;DHT22;9084;50.956;3.106;2024-02-14T07:54:44;11.30;99.90
17918;DHT22;9084;50.956;3.106;2024-02-14T07:57:14;11.30;99.90
17918;DHT22;9084;50.956;3.106;2024-02-14T07:59:39;11.30;99.90
17918;DHT22;9084;50.956;3.106;2024-02-14T08:02:05;11.30;99.90
17918;DHT22;9084;50.956;3.106;2024-02-14T08:04:33;11.40;99.90
17918;DHT22;9084;50.956;3.106;2024-02-14T08:07:01;11.40;99.90
17918;DHT22;9084;50.956;3.106;2024-02-14T08:09:29;11.50;99.90
17918;DHT22;9084;50.956;3.106;2024-02-14T08:11:55;11.50;99.90
17918;DHT22;9084;50.956;3.106;2024-02-14T08:14:21;11.50;99.90
17918;DHT22;9084;50.956;3.106;2024-02-14T08:16:47;11.50;99.90
17918;DHT22;9084;50.956;3.106;2024-02-14T08:19:12;11.50;99.90
17918;DHT22;9084;50.956;3.106;2024-02-14T08:21:38;11.60;99.90
17918;DHT22;9084;50.956;3.106;2024-02-14T08:24:04;11.60;99.90
17918;DHT22;9084;50.956;3.106;2024-02-14T08:26:34;11.60;99.90
17918;DHT22;9084;50.956;3.106;2024-02-14T08:29:02;11.60;99.90
17918;DHT22;9084;50.956;3.106;2024-02-14T08:31:31;11.60;99.90
17918;DHT22;9084;50.956;3.106;2024-02-14T08:33:58;11.70;99.90
17918;DHT22;9084;50.956;3.106;2024-02-14T08:36:24;11.70;99.90
17918;DHT22;9084;50.956;3.106;2024-02-14T08:38:50;11.70;99.90
17918;DHT22;9084;50.956;3.106;2024-02-14T08:41:16;11.70;99.90
17918;DHT22;9084;50.956;3.106;2024-02-14T08:43:41;11.70;99.90
17918;DHT22;9084;50.956;3.106;2024-02-14T08:46:10;11.70;99.90
17918;DHT22;9084;50.956;3.106;2024-02-14T08:48:36;11.60;99.90
17918;DHT22;9084;50.956;3.106;2024-02-14T08:51:02;11.70;99.90
17918;DHT22;9084;50.956;3.106;2024-02-14T08:53:29;11.60;99.90
17918;DHT22;9084;50.956;3.106;2024-02-14T08:55:55;11.60;99.90
17918;DHT22;9084;50.956;3.106;2024-02-14T08:58:21;11.60;99.90
17918;DHT22;9084;50.956;3.106;2024-02-14T09:00:48;11.70;99.90
17918;DHT22;9084;50.956;3.106;2024-02-14T09:03:14;11.70;99.90
17918;DHT22;9084;50.956;3.106;2024-02-14T09:05:39;11.70;99.90
17918;DHT22;9084;50.956;3.106;2024-02-14T09:08:05;11.70;99.90
17918;DHT22;9084;50.956;3.106;2024-02-14T09:10:31;11.70;99.90
17918;DHT22;9084;50.956;3.106;2024-02-14T09:12:56;11.80;99.90
17918;DHT22;9084;50.956;3.106;2024-02-14T09:15:22;11.70;99.90
17918;DHT22;9084;50.956;3.106;2024-02-14T09:17:51;11.80;99.90
17918;DHT22;9084;50.956;3.106;2024-02-14T09:20:19;11.80;99.90
17918;DHT22;9084;50.956;3.106;2024-02-14T09:22:45;11.80;99.90
17918;DHT22;9084;50.956;3.106;2024-02-14T09:25:14;11.80;99.90
17918;DHT22;9084;50.956;3.106;2024-02-14T09:27:41;11.90;99.90
17918;DHT22;9084;50.956;3.106;2024-02-14T09:30:09;11.90;99.90
17918;DHT22;9084;50.956;3.106;2024-02-14T09:32:37;11.90;99.90
17918;DHT22;9084;50.956;3.106;2024-02-14T09:35:02;11.90;99.90
17918;DHT22;9084;50.956;3.106;2024-02-14T09:37:32;12.00;99.90
17918;DHT22;9084;50.956;3.106;2024-02-14T09:39:58;12.00;99.90
17918;DHT22;9084;50.956;3.106;2024-02-14T09:42:32;12.00;99.90
17918;DHT22;9084;50.956;3.106;2024-02-14T09:45:02;12.10;99.90
17918;DHT22;9084;50.956;3.106;2024-02-14T09:47:28;12.10;99.90
17918;DHT22;9084;50.956;3.106;2024-02-14T09:49:56;12.20;99.90
17918;DHT22;9084;50.956;3.106;2024-02-14T09:52:23;12.20;99.90
17918;DHT22;9084;50.956;3.106;2024-02-14T09:54:52;12.20;99.90
17918;DHT22;9084;50.956;3.106;2024-02-14T09:57:18;12.20;99.90
17918;DHT22;9084;50.956;3.106;2024-02-14T09:59:46;12.20;99.90
17918;DHT22;9084;50.956;3.106;2024-02-14T10:02:16;12.30;99.90
17918;DHT22;9084;50.956;3.106;2024-02-14T10:04:45;12.30;99.90
17918;DHT22;9084;50.956;3.106;2024-02-14T10:07:13;12.30;99.90
17918;DHT22;9084;50.956;3.106;2024-02-14T10:09:42;12.30;99.90
17918;DHT22;9084;50.956;3.106;2024-02-14T10:12:09;12.40;99.90
17918;DHT22;9084;50.956;3.106;2024-02-14T10:14:37;12.40;99.90
17918;DHT22;9084;50.956;3.106;2024-02-14T10:17:07;12.40;99.90
17918;DHT22;9084;50.956;3.106;2024-02-14T10:19:35;12.40;99.90
17918;DHT22;9084;50.956;3.106;2024-02-14T10:22:03;12.40;99.90
17918;DHT22;9084;50.956;3.106;2024-02-14T10:24:31;12.40;99.90
17918;DHT22;9084;50.956;3.106;2024-02-14T10:26:59;12.40;99.90
17918;DHT22;9084;50.956;3.106;2024-02-14T10:29:25;12.50;99.90
17918;DHT22;9084;50.956;3.106;2024-02-14T10:31:52;12.50;99.90
17918;DHT22;9084;50.956;3.106;2024-02-14T10:34:25;12.60;99.90
17918;DHT22;9084;50.956;3.106;2024-02-14T10:36:56;12.60;99.90
17918;DHT22;9084;50.956;3.106;2024-02-14T10:39:22;12.60;99.90
17918;DHT22;9084;50.956;3.106;2024-02-14T10:41:50;12.70;99.90
17918;DHT22;9084;50.956;3.106;2024-02-14T10:44:18;12.70;99.90
17918;DHT22;9084;50.956;3.106;2024-02-14T10:46:46;12.70;99.90
17918;DHT22;9084;50.956;3.106;2024-02-14T10:49:16;12.70;99.90
17918;DHT22;9084;50.956;3.106;2024-02-14T10:51:47;12.70;99.90
17918;DHT22;9084;50.956;3.106;2024-02-14T10:54:14;12.70;99.90
17918;DHT22;9084;50.956;3.106;2024-02-14T10:56:44;12.70;99.90
17918;DHT22;9084;50.956;3.106;2024-02-14T10:59:14;12.70;99.90
17918;DHT22;9084;50.956;3.106;2024-02-14T11:01:44;12.70;99.90
17918;DHT22;9084;50.956;3.106;2024-02-14T11:04:11;12.80;99.90
17918;DHT22;9084;50.956;3.106;2024-02-14T11:06:47;12.80;99.90
17918;DHT22;9084;50.956;3.106;2024-02-14T11:09:13;12.80;99.90
17918;DHT22;9084;50.956;3.106;2024-02-14T11:11:42;12.80;99.90
17918;DHT22;9084;50.956;3.106;2024-02-14T11:14:13;12.90;99.90
17918;DHT22;9084;50.956;3.106;2024-02-14T11:16:45;12.90;99.90
17918;DHT22;9084;50.956;3.106;2024-02-14T11:19:12;12.90;99.90
17918;DHT22;9084;50.956;3.106;2024-02-14T11:21:42;12.90;99.90
17918;DHT22;9084;50.956;3.106;2024-02-14T11:24:13;13.00;99.90
17918;DHT22;9084;50.956;3.106;2024-02-14T11:26:49;13.00;99.90
17918;DHT22;9084;50.956;3.106;2024-02-14T11:29:19;13.10;99.90
17918;DHT22;9084;50.956;3.106;2024-02-14T11:31:45;13.10;99.90
17918;DHT22;9084;50.956;3.106;2024-02-14T11:34:14;13.10;99.90
17918;DHT22;9084;50.956;3.106;2024-02-14T11:36:44;13.10;99.90
17918;DHT22;9084;50.956;3.106;2024-02-14T11:39:13;13.10;99.90
17918;DHT22;9084;50.956;3.106;2024-02-14T11:41:41;13.20;99.90
17918;DHT22;9084;50.956;3.106;2024-02-14T11:44:08;13.20;99.90
17918;DHT22;9084;50.956;3.106;2024-02-14T11:46:35;13.20;99.90
17918;DHT22;9084;50.956;3.106;2024-02-14T11:49:02;13.20;99.90
17918;DHT22;9084;50.956;3.106;2024-02-14T11:51:29;13.20;99.90
17918;DHT22;9084;50.956;3.106;2024-02-14T11:53:56;13.20;99.90
17918;DHT22;9084;50.956;3.106;2024-02-14T11:56:33;13.20;99.90
17918;DHT22;9084;50.956;3.106;2024-02-14T11:59:06;13.10;99.90
17918;DHT22;9084;50.956;3.106;2024-02-14T12:01:40;13.10;99.90
17918;DHT22;9084;50.956;3.106;2024-02-14T12:04:08;13.10;99.90
17918;DHT22;9084;50.956;3.106;2024-02-14T12:06:38;13.10;99.90
17918;DHT22;9084;50.956;3.106;2024-02-14T12:09:06;13.00;99.90
17918;DHT22;9084;50.956;3.106;2024-02-14T12:11:38;13.00;99.90
17918;DHT22;9084;50.956;3.106;2024-02-14T12:14:08;13.00;99.90
17918;DHT22;9084;50.956;3.106;2024-02-14T12:16:38;13.00;99.90
17918;DHT22;9084;50.956;3.106;2024-02-14T12:19:09;12.90;99.90
17918;DHT22;9084;50.956;3.106;2024-02-14T12:21:40;12.90;99.90
17918;DHT22;9084;50.956;3.106;2024-02-14T12:24:09;12.90;99.90
17918;DHT22;9084;50.956;3.106;2024-02-14T12:26:37;13.00;99.90
17918;DHT22;9084;50.956;3.106;2024-02-14T12:29:06;13.00;99.90
17918;DHT22;9084;50.956;3.106;2024-02-14T12:31:33;13.00;99.90
17918;DHT22;9084;50.956;3.106;2024-02-14T12:34:00;13.00;99.90
17918;DHT22;9084;50.956;3.106;2024-02-14T12:36:33;13.10;99.90
17918;DHT22;9084;50.956;3.106;2024-02-14T12:38:59;13.10;99.90
17918;DHT22;9084;50.956;3.106;2024-02-14T12:41:28;13.00;99.90
17918;DHT22;9084;50.956;3.106;2024-02-14T12:43:55;13.00;99.90
17918;DHT22;9084;50.956;3.106;2024-02-14T12:46:28;13.10;99.90
17918;DHT22;9084;50.956;3.106;2024-02-14T12:48:54;13.10;99.90
17918;DHT22;9084;50.956;3.106;2024-02-14T12:51:20;13.10;99.90
17918;DHT22;9084;50.956;3.106;2024-02-14T12:53:46;13.10;99.90
17918;DHT22;9084;50.956;3.106;2024-02-14T12:56:11;13.10;99.90
17918;DHT22;9084;50.956;3.106;2024-02-14T12:58:37;13.10;99.90
17918;DHT22;9084;50.956;3.106;2024-02-14T13:01:03;13.10;99.90
17918;DHT22;9084;50.956;3.106;2024-02-14T13:03:36;13.10;99.90
17918;DHT22;9084;50.956;3.106;2024-02-14T13:06:02;13.10;99.90
17918;DHT22;9084;50.956;3.106;2024-02-14T13:08:27;13.10;99.90
17918;DHT22;9084;50.956;3.106;2024-02-14T13:10:53;13.10;99.90
17918;DHT22;9084;50.956;3.106;2024-02-14T13:13:19;13.20;99.90
17918;DHT22;9084;50.956;3.106;2024-02-14T13:15:45;13.20;99.90
17918;DHT22;9084;50.956;3.106;2024-02-14T13:18:12;13.20;99.90
17918;DHT22;9084;50.956;3.106;2024-02-14T13:20:42;13.30;99.90
17918;DHT22;9084;50.956;3.106;2024-02-14T13:23:09;13.30;99.90
17918;DHT22;9084;50.956;3.106;2024-02-14T13:25:36;13.40;99.90
17918;DHT22;9084;50.956;3.106;2024-02-14T13:28:07;13.40;99.90
17918;DHT22;9084;50.956;3.106;2024-02-14T13:30:33;13.40;99.90
17918;DHT22;9084;50.956;3.106;2024-02-14T13:33:01;13.40;99.90
17918;DHT22;9084;50.956;3.106;2024-02-14T13:35:26;13.40;99.90
17918;DHT22;9084;50.956;3.106;2024-02-14T13:37:55;13.40;99.90
17918;DHT22;9084;50.956;3.106;2024-02-14T13:40:21;13.40;99.90
17918;DHT22;9084;50.956;3.106;2024-02-14T13:42:47;13.40;99.90
17918;DHT22;9084;50.956;3.106;2024-02-14T13:45:13;13.30;99.90
17918;DHT22;9084;50.956;3.106;2024-02-14T13:47:41;13.40;99.90
17918;DHT22;9084;50.956;3.106;2024-02-14T13:50:11;13.30;99.90
17918;DHT22;9084;50.956;3.106;2024-02-14T13:52:37;13.40;99.90
17918;DHT22;9084;50.956;3.106;2024-02-14T13:55:03;13.40;99.90
17918;DHT22;9084;50.956;3.106;2024-02-14T13:57:39;13.40;99.90
17918;DHT22;9084;50.956;3.106;2024-02-14T14:00:06;13.40;99.90
17918;DHT22;9084;50.956;3.106;2024-02-14T14:02:35;13.40;99.90
17918;DHT22;9084;50.956;3.106;2024-02-14T14:05:10;13.40;99.90
17918;DHT22;9084;50.956;3.106;2024-02-14T14:07:39;13.40;99.90
17918;DHT22;9084;50.956;3.106;2024-02-14T14:10:06;13.40;99.90
17918;DHT22;9084;50.956;3.106;2024-02-14T14:12:33;13.40;99.90
17918;DHT22;9084;50.956;3.106;2024-02-14T14:15:02;13.50;99.90
17918;DHT22;9084;50.956;3.106;2024-02-14T14:17:28;13.50;99.90
17918;DHT22;9084;50.956;3.106;2024-02-14T14:19:56;13.60;99.90
17918;DHT22;9084;50.956;3.106;2024-02-14T14:22:22;13.60;99.90
17918;DHT22;9084;50.956;3.106;2024-02-14T14:24:50;13.70;99.90
17918;DHT22;9084;50.956;3.106;2024-02-14T14:27:16;13.70;99.90
17918;DHT22;9084;50.956;3.106;2024-02-14T14:29:46;13.80;99.90
17918;DHT22;9084;50.956;3.106;2024-02-14T14:32:14;13.90;99.90
17918;DHT22;9084;50.956;3.106;2024-02-14T14:34:41;13.90;99.90
17918;DHT22;9084;50.956;3.106;2024-02-14T14:37:07;13.90;99.90
17918;DHT22;9084;50.956;3.106;2024-02-14T14:39:35;13.90;99.90
17918;DHT22;9084;50.956;3.106;2024-02-14T14:42:02;13.90;99.90
17918;DHT22;9084;50.956;3.106;2024-02-14T14:44:28;13.90;99.90
17918;DHT22;9084;50.956;3.106;2024-02-14T14:46:56;13.90;99.90
17918;DHT22;9084;50.956;3.106;2024-02-14T14:49:26;13.80;99.90
17918;DHT22;9084;50.956;3.106;2024-02-14T14:51:54;13.80;99.90
17918;DHT22;9084;50.956;3.106;2024-02-14T14:54:22;13.70;99.90
17918;DHT22;9084;50.956;3.106;2024-02-14T14:56:53;13.70;99.90
17918;DHT22;9084;50.956;3.106;2024-02-14T14:59:19;13.60;99.90
17918;DHT22;9084;50.956;3.106;2024-02-14T15:01:45;13.60;99.90
17918;DHT22;9084;50.956;3.106;2024-02-14T15:04:10;13.50;99.90
17918;DHT22;9084;50.956;3.106;2024-02-14T15:06:38;13.50;99.90
17918;DHT22;9084;50.956;3.106;2024-02-14T15:09:06;13.50;99.90
17918;DHT22;9084;50.956;3.106;2024-02-14T15:11:34;13.50;99.90
17918;DHT22;9084;50.956;3.106;2024-02-14T15:14:00;13.50;99.90
17918;DHT22;9084;50.956;3.106;2024-02-14T15:16:25;13.40;99.90
17918;DHT22;9084;50.956;3.106;2024-02-14T15:18:51;13.40;99.90
17918;DHT22;9084;50.956;3.106;2024-02-14T15:21:17;13.40;99.90
17918;DHT22;9084;50.956;3.106;2024-02-14T15:23:45;13.40;99.90
17918;DHT22;9084;50.956;3.106;2024-02-14T15:26:11;13.40;99.90
17918;DHT22;9084;50.956;3.106;2024-02-14T15:28:42;13.40;99.90
17918;DHT22;9084;50.956;3.106;2024-02-14T15:31:12;13.40;99.90
17918;DHT22;9084;50.956;3.106;2024-02-14T15:33:56;13.40;99.90
17918;DHT22;9084;50.956;3.106;2024-02-14T15:36:22;13.40;99.90
17918;DHT22;9084;50.956;3.106;2024-02-14T15:38:48;13.40;99.90
17918;DHT22;9084;50.956;3.106;2024-02-14T15:41:14;13.40;99.90
17918;DHT22;9084;50.956;3.106;2024-02-14T15:43:40;13.40;99.90
17918;DHT22;9084;50.956;3.106;2024-02-14T15:46:10;13.40;99.90